Time;durP1;ratioP1;P1;durP2;ratioP2;P2;SDS_P1;SDS_P2;PMS_P1;PMS_P2;Temp;Humidity;BMP_temperature;BMP_pressure;BME280_temperature;BME280_humidity;BME280_pressure;Samples;Min_cycle;Max_cycle;Signal;HPM_P1;HPM_P2
2022/01/11 00:01:21;;;;;;;5.18;2.50;;;;;;;3.17;74.84;94603.94;5008855;28;20046;-61
2022/01/11 00:03:46;;;;;;;4.80;2.20;;;;;;;3.11;74.94;94608.34;5010184;28;20093;-61
2022/01/11 00:06:31;;;;;;;3.50;2.00;;;;;;;3.00;74.83;94590.16;5009905;28;20037;-61
2022/01/11 00:09:01;;;;;;;4.18;2.00;;;;;;;3.13;74.00;94613.41;5010540;28;20373;-60
2022/01/11 00:11:27;;;;;;;5.35;2.40;;;;;;;3.11;74.37;94602.44;5010211;28;20025;-60
2022/01/11 00:13:53;;;;;;;4.40;2.45;;;;;;;2.92;74.12;94582.00;5010144;28;20032;-60
2022/01/11 00:16:18;;;;;;;6.32;2.10;;;;;;;3.19;74.07;94612.34;5010135;28;20030;-61
2022/01/11 00:18:44;;;;;;;4.70;2.00;;;;;;;3.10;73.71;94619.47;5009673;28;20022;-61
2022/01/11 00:21:10;;;;;;;3.22;1.60;;;;;;;3.04;74.50;94618.88;5009907;28;20040;-61
2022/01/11 00:26:02;;;;;;;3.63;2.40;;;;;;;2.93;74.74;94597.19;5010115;28;20397;-61
2022/01/11 00:28:27;;;;;;;3.38;1.77;;;;;;;2.94;75.14;94624.31;5009837;28;20032;-61
2022/01/11 00:30:54;;;;;;;3.35;1.77;;;;;;;2.88;76.07;94618.66;5009392;28;20022;-62
2022/01/11 00:33:33;;;;;;;3.50;1.90;;;;;;;2.85;76.04;94629.78;5010087;28;20053;-62
2022/01/11 00:36:00;;;;;;;3.78;1.80;;;;;;;2.75;76.11;94608.97;5009535;28;20048;-61
2022/01/11 00:38:29;;;;;;;4.75;2.20;;;;;;;2.68;76.35;94609.25;5010003;28;20030;-60
2022/01/11 00:40:58;;;;;;;4.22;2.20;;;;;;;2.84;76.69;94630.69;5009483;28;20040;-61
2022/01/11 00:43:26;;;;;;;4.30;2.45;;;;;;;2.81;75.93;94635.06;5009103;28;20022;-61
2022/01/11 00:45:53;;;;;;;4.07;2.38;;;;;;;2.85;76.00;94631.50;5008307;28;20456;-60
2022/01/11 00:48:19;;;;;;;3.85;2.20;;;;;;;2.73;75.48;94626.00;5009567;28;20026;-61
2022/01/11 00:50:46;;;;;;;4.15;2.30;;;;;;;2.64;75.50;94603.44;5009400;28;20073;-63
2022/01/11 00:53:12;;;;;;;4.68;2.45;;;;;;;2.87;75.44;94650.09;5009589;28;20025;-60
2022/01/11 00:55:38;;;;;;;3.70;2.38;;;;;;;2.94;74.96;94646.44;5009018;28;20413;-60
2022/01/11 00:58:04;;;;;;;5.07;2.40;;;;;;;2.92;74.38;94643.13;5009125;28;20498;-60
2022/01/11 01:00:30;;;;;;;3.63;2.10;;;;;;;2.77;73.50;94631.78;5008488;28;20196;-60
2022/01/11 01:02:56;;;;;;;3.53;2.08;;;;;;;2.92;73.80;94660.94;5009206;28;20080;-61
2022/01/11 01:05:21;;;;;;;4.45;2.00;;;;;;;3.10;72.90;94670.41;5008953;28;20038;-62
2022/01/11 01:07:50;;;;;;;4.43;2.55;;;;;;;3.04;72.32;94673.19;5008841;28;20137;-61
2022/01/11 01:10:26;;;;;;;3.72;2.03;;;;;;;2.98;72.30;94673.44;5008962;28;20033;-61
2022/01/11 01:12:55;;;;;;;2.78;1.75;;;;;;;3.00;71.23;94674.22;5009225;28;20040;-61
2022/01/11 01:15:21;;;;;;;2.33;1.40;;;;;;;2.85;70.63;94645.06;5008778;28;20029;-61
2022/01/11 01:17:46;;;;;;;3.03;1.33;;;;;;;3.00;70.55;94679.31;5008950;28;20501;-61
2022/01/11 01:20:13;;;;;;;2.00;1.20;;;;;;;2.90;69.74;94639.78;5007016;28;20053;-61
2022/01/11 01:22:38;;;;;;;2.70;1.52;;;;;;;3.01;69.87;94675.84;5008844;28;20034;-62
2022/01/11 01:25:05;;;;;;;2.80;1.40;;;;;;;2.98;69.20;94675.97;5008821;28;20125;-61
2022/01/11 01:27:30;;;;;;;1.73;1.30;;;;;;;2.96;69.16;94679.50;5008718;28;20041;-61
2022/01/11 01:29:56;;;;;;;1.95;1.45;;;;;;;2.80;69.69;94662.22;5008695;28;20034;-62
2022/01/11 01:32:22;;;;;;;1.88;1.17;;;;;;;2.93;68.91;94680.41;5008295;28;20034;-60
2022/01/11 01:34:49;;;;;;;2.17;1.30;;;;;;;2.95;69.61;94693.91;5007400;28;20129;-61
2022/01/11 01:37:15;;;;;;;1.85;1.13;;;;;;;2.74;69.93;94668.41;5008781;28;20132;-61
2022/01/11 01:39:40;;;;;;;1.50;1.27;;;;;;;2.91;70.22;94700.84;5008863;28;20038;-61
2022/01/11 01:42:08;;;;;;;1.70;1.08;;;;;;;2.63;70.62;94655.25;5008678;28;20113;-61
2022/01/11 01:44:34;;;;;;;1.67;1.00;;;;;;;2.84;70.31;94688.44;5008264;28;20030;-60
2022/01/11 01:47:00;;;;;;;3.08;1.38;;;;;;;2.93;70.13;94688.06;5008660;28;20021;-62
2022/01/11 01:49:27;;;;;;;1.10;1.00;;;;;;;2.76;70.48;94681.91;5008292;28;20109;-60
2022/01/11 01:51:52;;;;;;;2.45;1.30;;;;;;;2.65;70.84;94673.00;5009025;28;20033;-62
2022/01/11 01:54:18;;;;;;;3.38;1.40;;;;;;;2.79;69.95;94687.75;5008327;28;20038;-62
2022/01/11 01:56:44;;;;;;;3.13;1.83;;;;;;;2.80;69.61;94691.97;5008290;28;20081;-62
2022/01/11 01:59:10;;;;;;;2.17;1.38;;;;;;;2.68;70.23;94685.63;5008293;28;20068;-61
2022/01/11 02:01:43;;;;;;;1.40;1.08;;;;;;;2.82;69.43;94698.69;5008582;28;20739;-60
2022/01/11 02:04:09;;;;;;;2.63;1.45;;;;;;;2.81;69.89;94698.72;5008169;28;20511;-60
2022/01/11 02:06:36;;;;;;;2.85;1.33;;;;;;;2.64;69.68;94673.88;5007825;28;20038;-60
2022/01/11 02:09:03;;;;;;;2.15;1.50;;;;;;;2.62;70.44;94689.22;5008323;28;20499;-62
2022/01/11 02:11:31;;;;;;;1.33;1.15;;;;;;;2.68;70.35;94703.44;5009405;28;20057;-61
2022/01/11 02:13:57;;;;;;;1.88;1.20;;;;;;;2.74;70.62;94713.41;5012433;28;20033;-62
2022/01/11 02:16:23;;;;;;;1.33;1.20;;;;;;;2.82;70.01;94711.41;5012223;28;20036;-61
2022/01/11 02:18:50;;;;;;;1.67;1.35;;;;;;;2.82;69.33;94692.72;5011809;28;20034;-61
2022/01/11 02:21:15;;;;;;;1.27;1.02;;;;;;;2.80;69.49;94714.88;5012202;28;20037;-61
2022/01/11 02:23:41;;;;;;;1.30;1.02;;;;;;;2.82;69.78;94713.94;5012156;28;20026;-61
2022/01/11 02:26:07;;;;;;;4.25;1.80;;;;;;;2.90;69.66;94713.66;5011762;28;20034;-61
2022/01/11 02:28:33;;;;;;;2.10;1.30;;;;;;;2.85;70.17;94725.72;5012010;28;20030;-63
2022/01/11 02:31:04;;;;;;;2.22;1.30;;;;;;;2.80;70.08;94702.97;5011491;28;20034;-62
2022/01/11 02:33:32;;;;;;;2.40;1.70;;;;;;;2.80;71.34;94730.16;5011740;28;20092;-62
2022/01/11 02:36:06;;;;;;;3.00;1.85;;;;;;;2.86;70.97;94727.41;5012363;28;20327;-62
2022/01/11 02:38:32;;;;;;;3.33;1.67;;;;;;;2.75;72.00;94731.19;5012045;28;20058;-62
2022/01/11 02:40:58;;;;;;;3.50;1.83;;;;;;;2.80;71.77;94736.06;5012129;28;20068;-64
2022/01/11 02:43:24;;;;;;;2.88;1.60;;;;;;;2.54;72.47;94709.03;5011410;28;20042;-61
2022/01/11 02:45:50;;;;;;;2.50;1.45;;;;;;;2.60;72.64;94741.09;5011869;28;20382;-61
2022/01/11 02:48:16;;;;;;;2.70;1.48;;;;;;;2.55;71.99;94734.44;5011519;28;20029;-62
2022/01/11 02:50:44;;;;;;;2.92;1.40;;;;;;;2.57;72.77;94739.47;5011935;28;20489;-61
2022/01/11 02:53:10;;;;;;;1.95;1.60;;;;;;;2.54;72.48;94742.13;5011590;28;20034;-62
2022/01/11 02:55:38;;;;;;;2.20;1.38;;;;;;;2.66;71.80;94744.25;5011314;28;20033;-60
2022/01/11 02:58:04;;;;;;;1.70;1.30;;;;;;;2.42;71.65;94710.31;5011243;28;20107;-61
2022/01/11 03:00:29;;;;;;;3.55;1.75;;;;;;;2.60;71.56;94751.28;5010901;28;20788;-61
2022/01/11 03:02:55;;;;;;;2.20;1.52;;;;;;;2.53;71.24;94736.22;5011337;28;20038;-60
2022/01/11 03:05:20;;;;;;;2.05;1.38;;;;;;;2.67;70.53;94747.59;5010955;28;20018;-60
2022/01/11 03:07:46;;;;;;;2.53;1.80;;;;;;;2.67;70.08;94756.09;5011133;28;20029;-60
2022/01/11 03:10:34;;;;;;;2.17;1.40;;;;;;;2.56;70.26;94742.91;5011117;28;20083;-61
2022/01/11 03:13:01;;;;;;;2.22;1.35;;;;;;;2.59;70.01;94747.88;5011206;28;20466;-61
2022/01/11 03:15:27;;;;;;;2.20;1.40;;;;;;;2.56;70.22;94748.84;5011568;28;20496;-63
2022/01/11 03:17:52;;;;;;;2.05;1.50;;;;;;;2.48;70.49;94755.91;5011425;28;20014;-60
2022/01/11 03:20:18;;;;;;;2.45;1.50;;;;;;;2.32;69.41;94722.53;5010891;28;20025;-61
2022/01/11 03:22:43;;;;;;;1.73;1.13;;;;;;;2.39;70.02;94743.50;5010526;28;20113;-60
2022/01/11 03:25:09;;;;;;;1.05;0.93;;;;;;;2.55;68.87;94744.63;5010944;28;20397;-60
2022/01/11 03:27:35;;;;;;;1.65;1.38;;;;;;;2.53;68.38;94761.66;5010984;28;20032;-61
2022/01/11 03:30:00;;;;;;;1.30;1.08;;;;;;;2.54;68.48;94758.25;5010976;28;20074;-61
2022/01/11 03:32:26;;;;;;;1.48;1.08;;;;;;;2.44;68.25;94759.44;5010267;28;20083;-61
2022/01/11 03:34:51;;;;;;;1.38;1.13;;;;;;;2.43;68.46;94751.84;5010962;28;20018;-58
2022/01/11 03:37:18;;;;;;;1.17;1.00;;;;;;;2.48;67.28;94750.81;5010600;28;20026;-60
2022/01/11 03:39:44;;;;;;;2.40;1.38;;;;;;;2.63;67.01;94763.88;5010714;28;20492;-61
2022/01/11 03:42:10;;;;;;;1.10;1.00;;;;;;;2.31;67.60;94725.97;5010742;28;20034;-61
2022/01/11 03:44:36;;;;;;;1.63;1.08;;;;;;;2.36;66.89;94736.81;5010397;28;20037;-60
2022/01/11 03:47:02;;;;;;;2.15;1.20;;;;;;;2.57;67.12;94768.31;5010697;28;20511;-61
2022/01/11 03:49:28;;;;;;;2.05;1.30;;;;;;;2.49;67.32;94759.28;5010657;28;20084;-60
2022/01/11 03:51:54;;;;;;;2.15;1.15;;;;;;;2.24;66.76;94727.06;5010930;28;20030;-60
2022/01/11 03:54:26;;;;;;;2.17;1.40;;;;;;;2.39;66.64;94759.63;5010216;28;20033;-60
2022/01/11 03:56:52;;;;;;;2.78;1.40;;;;;;;2.30;67.80;94759.13;5010071;28;20044;-61
2022/01/11 03:59:19;;;;;;;1.55;1.33;;;;;;;2.34;67.88;94776.75;5010170;28;20048;-61
2022/01/11 04:01:44;;;;;;;2.67;1.48;;;;;;;2.24;68.30;94780.50;5010261;28;20034;-61
2022/01/11 04:04:10;;;;;;;3.58;1.67;;;;;;;2.09;68.76;94769.13;5010053;28;20035;-60
2022/01/11 04:06:37;;;;;;;2.08;1.40;;;;;;;2.23;67.87;94789.03;5009876;28;20109;-60
2022/01/11 04:09:04;;;;;;;1.55;1.40;;;;;;;2.24;68.31;94769.50;5010340;28;20136;-62
2022/01/11 04:11:30;;;;;;;2.35;1.45;;;;;;;2.25;67.99;94783.84;5010105;28;20038;-60
2022/01/11 04:13:55;;;;;;;2.55;1.40;;;;;;;1.99;67.68;94750.81;5010074;28;20125;-60
2022/01/11 04:16:21;;;;;;;2.50;1.30;;;;;;;2.23;68.15;94790.72;5010037;28;20022;-60
2022/01/11 04:18:46;;;;;;;2.08;1.30;;;;;;;2.29;67.75;94803.25;5009389;28;20058;-59
2022/01/11 04:21:12;;;;;;;1.73;1.30;;;;;;;2.22;67.22;94784.00;5010222;28;20103;-62
2022/01/11 04:23:38;;;;;;;2.72;1.40;;;;;;;2.35;67.91;94808.13;5009864;28;20116;-61
2022/01/11 04:26:04;;;;;;;2.10;1.45;;;;;;;2.41;67.35;94814.72;5010160;28;20025;-61
2022/01/11 04:28:30;;;;;;;2.00;1.42;;;;;;;2.28;66.78;94820.22;5009787;28;20060;-61
2022/01/11 04:31:00;;;;;;;1.98;1.63;;;;;;;2.26;66.71;94811.78;5009404;28;20041;-60
2022/01/11 04:33:26;;;;;;;2.67;1.67;;;;;;;2.28;67.03;94822.78;5009978;28;20030;-61
2022/01/11 04:35:52;;;;;;;1.90;1.30;;;;;;;2.33;65.99;94827.72;5008931;28;20029;-61
2022/01/11 04:38:20;;;;;;;5.47;1.70;;;;;;;2.24;66.59;94826.28;5009785;28;20382;-61
2022/01/11 04:40:46;;;;;;;2.78;2.00;;;;;;;2.43;64.60;94829.06;5009776;28;20030;-61
2022/01/11 04:43:11;;;;;;;2.10;1.60;;;;;;;2.52;65.05;94825.34;5009327;28;20501;-61
2022/01/11 04:45:37;;;;;;;4.32;2.30;;;;;;;2.50;64.05;94838.13;5009502;28;20030;-61
2022/01/11 04:48:03;;;;;;;4.00;2.08;;;;;;;2.44;64.25;94827.34;5009499;28;20030;-61
2022/01/11 04:50:29;;;;;;;4.43;2.35;;;;;;;2.48;64.20;94842.44;5009680;28;20732;-60
2022/01/11 04:52:55;;;;;;;5.00;2.38;;;;;;;2.55;63.24;94850.72;5009470;28;20026;-62
2022/01/11 04:55:21;;;;;;;3.97;1.90;;;;;;;2.48;63.00;94829.72;5008815;28;20030;-62
2022/01/11 04:57:47;;;;;;;4.15;2.10;;;;;;;2.60;63.47;94848.00;5009246;28;20049;-60
2022/01/11 05:00:14;;;;;;;5.93;2.75;;;;;;;0.51;63.46;94533.81;5009201;28;20033;-63
2022/01/11 05:02:40;;;;;;;5.47;2.80;;;;;;;2.64;63.32;94858.03;5008651;28;20038;-61
2022/01/11 05:05:06;;;;;;;5.72;3.00;;;;;;;2.71;63.03;94863.75;5009303;28;20054;-61
2022/01/11 05:07:32;;;;;;;5.95;2.90;;;;;;;2.33;63.57;94832.81;5008745;28;20517;-61
2022/01/11 05:09:57;;;;;;;4.53;2.22;;;;;;;2.19;63.05;94831.53;5009306;28;20457;-61
2022/01/11 05:12:23;;;;;;;4.45;2.70;;;;;;;2.40;63.43;94859.69;5009107;28;20062;-62
2022/01/11 05:14:49;;;;;;;4.63;2.20;;;;;;;2.08;63.08;94813.25;5009120;28;20034;-61
2022/01/11 05:17:15;;;;;;;3.00;1.83;;;;;;;2.37;62.54;94867.44;5008910;28;20030;-62
2022/01/11 05:19:40;;;;;;;2.63;1.40;;;;;;;2.46;62.32;94866.28;5008569;28;20033;-61
2022/01/11 05:22:06;;;;;;;1.95;1.50;;;;;;;2.32;61.91;94849.75;4999198;28;20026;-62
2022/01/11 05:24:31;;;;;;;2.63;1.80;;;;;;;2.36;61.99;94874.25;4989222;28;20023;-62
2022/01/11 05:26:57;;;;;;;2.25;1.42;;;;;;;2.10;63.04;94859.84;4989568;28;20026;-61
2022/01/11 05:29:22;;;;;;;2.83;1.80;;;;;;;2.31;62.33;94883.75;4989118;28;20034;-61
2022/01/11 05:31:48;;;;;;;1.63;1.40;;;;;;;2.27;63.08;94883.88;4988760;28;20026;-60
2022/01/11 05:34:14;;;;;;;2.00;1.33;;;;;;;2.18;62.56;94875.69;4988969;28;20030;-61
2022/01/11 05:36:40;;;;;;;1.92;1.60;;;;;;;2.30;62.18;94883.78;4989287;28;20085;-61
2022/01/11 05:39:05;;;;;;;1.83;1.30;;;;;;;2.10;62.05;94851.34;4989392;28;20428;-60
2022/01/11 05:41:32;;;;;;;2.42;1.60;;;;;;;2.28;62.69;94886.38;4988909;28;20097;-62
2022/01/11 05:43:57;;;;;;;3.05;2.10;;;;;;;2.23;62.74;94889.94;4988700;28;20084;-60
2022/01/11 05:46:23;;;;;;;3.35;1.88;;;;;;;2.26;62.63;94895.75;4999302;28;20034;-63
2022/01/11 05:48:48;;;;;;;2.80;1.80;;;;;;;2.32;62.37;94895.56;5008323;28;20065;-62
2022/01/11 05:51:15;;;;;;;4.75;2.13;;;;;;;2.33;62.44;94884.53;5008421;28;20073;-61
2022/01/11 05:53:42;;;;;;;3.08;1.90;;;;;;;2.22;62.15;94866.22;5008460;28;20056;-60
2022/01/11 05:56:08;;;;;;;4.88;2.08;;;;;;;2.18;62.25;94864.66;5007948;28;20025;-62
2022/01/11 05:58:33;;;;;;;3.03;1.85;;;;;;;2.30;61.61;94871.06;5008132;28;20447;-62
2022/01/11 06:00:59;;;;;;;5.85;2.63;;;;;;;2.38;61.97;94902.19;5007933;28;20101;-62
2022/01/11 06:03:25;;;;;;;2.70;1.83;;;;;;;2.23;62.44;94880.63;5006038;28;20038;-61
2022/01/11 06:05:51;;;;;;;3.35;2.22;;;;;;;2.53;61.43;94911.03;5006166;28;20029;-62
2022/01/11 06:08:16;;;;;;;3.67;2.50;;;;;;;2.48;62.19;94918.81;5007225;28;20080;-61
2022/01/11 06:10:43;;;;;;;2.95;2.00;;;;;;;2.47;61.55;94924.78;5008184;28;20513;-62
2022/01/11 06:13:10;;;;;;;2.95;1.90;;;;;;;2.41;61.29;94925.00;5008298;28;20030;-62
2022/01/11 06:15:35;;;;;;;3.40;2.17;;;;;;;2.48;61.23;94921.34;5012404;28;20666;-62
2022/01/11 06:18:01;;;;;;;5.25;2.60;;;;;;;2.44;62.19;94934.22;5011358;28;20191;-63
2022/01/11 06:20:26;;;;;;;4.45;2.70;;;;;;;2.24;61.38;94896.72;5007464;28;20068;-60
2022/01/11 06:22:53;;;;;;;4.25;2.75;;;;;;;2.46;60.99;94932.44;5010560;28;20036;-61
2022/01/11 06:25:19;;;;;;;3.75;2.60;;;;;;;2.39;60.87;94934.38;5007596;28;20093;-62
2022/01/11 06:27:45;;;;;;;4.70;2.78;;;;;;;2.13;61.39;94904.66;5006343;28;20026;-62
2022/01/11 06:30:11;;;;;;;4.55;2.35;;;;;;;2.51;60.16;94940.78;5006390;28;20037;-61
2022/01/11 06:32:38;;;;;;;5.20;2.70;;;;;;;2.22;61.06;94917.13;5004934;28;20453;-61
2022/01/11 06:35:05;;;;;;;4.38;2.70;;;;;;;2.40;61.01;94953.88;5007200;28;20062;-60
2022/01/11 06:37:31;;;;;;;4.82;3.17;;;;;;;2.41;60.92;94954.69;5007660;28;20113;-60
2022/01/11 06:39:57;;;;;;;9.30;3.47;;;;;;;2.40;61.43;94958.94;5006909;28;20607;-61
2022/01/11 06:42:22;;;;;;;6.05;3.05;;;;;;;2.41;60.60;94957.22;5007099;28;20799;-60
2022/01/11 06:44:48;;;;;;;4.78;3.15;;;;;;;2.35;61.19;94951.47;5011950;28;20042;-61
2022/01/11 06:47:13;;;;;;;4.13;2.60;;;;;;;2.18;59.85;94913.84;5005930;28;20041;-63
2022/01/11 06:49:39;;;;;;;4.03;2.47;;;;;;;2.49;60.03;94955.28;5009576;28;20049;-62
2022/01/11 06:52:05;;;;;;;4.22;2.50;;;;;;;2.48;59.56;94949.34;5007887;28;20026;-65
2022/01/11 06:54:31;;;;;;;5.13;2.40;;;;;;;2.62;58.87;94948.06;5008041;28;20040;-63
2022/01/11 06:56:56;;;;;;;5.55;3.05;;;;;;;2.58;59.69;94972.78;5001708;28;20080;-62
2022/01/11 06:59:22;;;;;;;4.18;2.50;;;;;;;2.30;64.10;94950.78;5002639;28;20038;-63
2022/01/11 07:01:49;;;;;;;3.70;2.35;;;;;;;2.57;59.60;94976.22;5007711;28;20139;-66
2022/01/11 07:04:14;;;;;;;3.97;2.40;;;;;;;2.39;59.82;94949.63;5006240;28;20113;-64
2022/01/11 07:06:40;;;;;;;5.57;3.33;;;;;;;2.57;59.01;94971.97;5006569;28;20216;-63
2022/01/11 07:09:05;;;;;;;3.70;2.10;;;;;;;2.78;57.95;95002.69;5008459;28;20155;-64
2022/01/11 07:11:31;;;;;;;4.45;2.28;;;;;;;2.70;58.39;94997.03;5006951;28;20030;-64
2022/01/11 07:13:56;;;;;;;3.88;2.20;;;;;;;2.43;59.05;94960.53;5008159;28;20033;-64
2022/01/11 07:16:22;;;;;;;3.83;2.53;;;;;;;2.61;59.44;94995.63;5007753;28;20131;-61
2022/01/11 07:18:47;;;;;;;4.60;2.30;;;;;;;2.22;59.00;94955.28;5007322;28;20037;-63
2022/01/11 07:21:13;;;;;;;5.95;3.03;;;;;;;2.66;59.10;95006.47;5007785;28;20044;-63
2022/01/11 07:23:39;;;;;;;5.32;3.38;;;;;;;2.48;59.56;95012.16;5007141;28;20038;-61
2022/01/11 07:26:07;;;;;;;3.63;2.15;;;;;;;2.33;59.57;95004.13;5007215;28;20046;-63
2022/01/11 07:28:34;;;;;;;4.32;2.72;;;;;;;2.54;58.93;95025.53;5007414;28;20034;-63
2022/01/11 07:30:59;;;;;;;3.92;2.22;;;;;;;2.62;58.78;95025.25;5008930;28;20045;-58
2022/01/11 07:33:25;;;;;;;5.13;2.33;;;;;;;2.20;59.20;94987.56;5010766;28;20034;-61
2022/01/11 07:35:51;;;;;;;3.53;2.20;;;;;;;2.33;59.85;95014.31;5008989;28;20030;-60
2022/01/11 07:38:16;;;;;;;3.72;2.03;;;;;;;2.43;60.25;95016.53;5010924;28;20042;-60
2022/01/11 07:40:41;;;;;;;4.43;2.70;;;;;;;2.53;59.70;95038.31;5007357;28;20044;-61
2022/01/11 07:43:07;;;;;;;4.22;2.45;;;;;;;2.42;59.57;95043.72;5010454;28;20034;-62
2022/01/11 07:45:33;;;;;;;5.47;2.92;;;;;;;2.47;59.68;95043.56;5010483;28;20505;-63
2022/01/11 07:47:58;;;;;;;4.82;2.80;;;;;;;2.26;60.08;95014.53;5010475;28;20026;-60
2022/01/11 07:50:24;;;;;;;7.07;3.35;;;;;;;2.28;61.08;95046.69;5010535;28;20026;-61
2022/01/11 07:52:51;;;;;;;4.07;2.50;;;;;;;2.37;60.33;95048.13;5010154;28;20516;-60
2022/01/11 07:55:17;;;;;;;4.03;2.60;;;;;;;2.35;60.03;95044.78;5008267;28;20095;-61
2022/01/11 07:57:43;;;;;;;4.20;2.30;;;;;;;2.45;59.72;95052.97;5010150;28;20493;-62
2022/01/11 08:00:09;;;;;;;4.35;2.20;;;;;;;2.47;59.74;95044.41;5010341;28;20029;-61
2022/01/11 08:02:34;;;;;;;5.32;2.70;;;;;;;2.54;59.89;95055.22;5010428;28;20063;-61
2022/01/11 08:05:00;;;;;;;3.53;1.95;;;;;;;2.45;59.27;95068.25;5010103;28;20113;-62
2022/01/11 08:07:26;;;;;;;4.05;2.10;;;;;;;2.31;59.65;95038.97;5009687;28;20481;-61
2022/01/11 08:09:51;;;;;;;4.25;2.00;;;;;;;2.46;59.63;95073.31;5008954;28;20036;-61
2022/01/11 08:12:17;;;;;;;4.50;2.33;;;;;;;2.69;59.13;95069.19;5008796;28;20080;-63
2022/01/11 08:14:42;;;;;;;3.42;2.10;;;;;;;2.52;58.50;95054.44;5005945;28;20497;-60
2022/01/11 08:17:08;;;;;;;3.92;2.03;;;;;;;2.49;59.32;95072.34;5009693;28;20485;-60
2022/01/11 08:19:33;;;;;;;5.05;2.00;;;;;;;2.34;60.37;95077.03;5008005;28;20453;-61
2022/01/11 08:21:59;;;;;;;4.78;2.42;;;;;;;2.16;60.28;95044.50;5007843;28;20065;-61
2022/01/11 08:24:25;;;;;;;4.75;2.38;;;;;;;2.26;60.81;95088.31;5009148;28;20506;-61
2022/01/11 08:26:51;;;;;;;3.60;2.20;;;;;;;2.07;61.36;95090.59;5007224;28;20029;-60
2022/01/11 08:29:18;;;;;;;6.20;2.80;;;;;;;2.10;61.86;95093.88;5005271;28;20064;-62
2022/01/11 08:31:47;;;;;;;4.97;2.75;;;;;;;2.19;62.63;95102.94;4989345;28;20184;-60
2022/01/11 08:34:14;;;;;;;6.95;3.90;;;;;;;2.43;61.63;95095.44;4990447;28;20430;-61
2022/01/11 08:36:44;;;;;;;4.93;3.10;;;;;;;2.35;62.20;95109.25;4989778;28;20030;-61
2022/01/11 08:39:11;;;;;;;3.95;2.42;;;;;;;2.39;62.46;95100.66;4990420;28;20034;-62
2022/01/11 08:41:38;;;;;;;5.40;3.22;;;;;;;1.32;62.45;94956.25;4989775;28;20038;-65
2022/01/11 08:44:03;;;;;;;5.55;2.78;;;;;;;2.33;62.81;95108.47;4989195;28;20034;-61
2022/01/11 08:46:29;;;;;;;4.63;2.70;;;;;;;2.26;62.77;95113.75;4990141;28;20100;-62
2022/01/11 08:48:54;;;;;;;5.03;2.88;;;;;;;2.36;62.85;95116.00;4989770;28;20572;-61
2022/01/11 08:51:20;;;;;;;6.80;4.25;;;;;;;2.20;62.78;95107.97;4990216;28;20084;-61
2022/01/11 08:53:45;;;;;;;5.90;3.60;;;;;;;2.04;62.96;95098.28;5020532;28;20166;-63
2022/01/11 08:56:15;;;;;;;5.45;3.05;;;;;;;2.03;61.51;95099.97;4989470;28;20030;-59
2022/01/11 08:58:41;;;;;;;4.82;2.80;;;;;;;2.20;61.75;95147.88;4989378;28;20078;-60
2022/01/11 09:01:06;;;;;;;4.43;2.60;;;;;;;2.10;61.85;95139.66;4989337;28;20049;-61
2022/01/11 09:03:32;;;;;;;4.65;2.58;;;;;;;2.18;60.63;95153.00;4989816;28;20034;-61
2022/01/11 09:05:57;;;;;;;5.03;2.80;;;;;;;2.27;61.84;95159.53;4989378;28;20030;-62
2022/01/11 09:08:23;;;;;;;4.15;2.40;;;;;;;2.29;60.90;95159.47;4988843;28;20057;-60
2022/01/11 09:10:48;;;;;;;4.70;2.75;;;;;;;2.08;61.23;95128.66;4989633;28;20058;-55
2022/01/11 09:13:16;;;;;;;3.20;1.98;;;;;;;2.14;61.08;95156.47;4989361;28;20405;-59
2022/01/11 09:15:41;;;;;;;4.32;2.45;;;;;;;2.21;59.78;95154.59;4988955;28;20049;-55
2022/01/11 09:18:07;;;;;;;4.68;2.53;;;;;;;1.94;60.58;95118.88;4989424;28;20026;-60
2022/01/11 09:20:32;;;;;;;4.85;2.53;;;;;;;2.11;60.58;95155.75;4988140;28;20106;-61
2022/01/11 09:22:57;;;;;;;8.38;3.38;;;;;;;1.94;62.54;95156.22;4988676;28;20034;-58
2022/01/11 09:25:23;;;;;;;5.18;2.78;;;;;;;1.95;61.90;95148.53;5004238;28;20026;-61
2022/01/11 09:27:49;;;;;;;5.97;2.88;;;;;;;1.96;61.31;95142.56;5035937;28;20022;-59
2022/01/11 09:30:15;;;;;;;3.72;2.10;;;;;;;1.93;61.24;95162.16;5008616;28;20030;-59
2022/01/11 09:32:42;;;;;;;4.60;2.70;;;;;;;1.80;61.54;95126.91;5006686;28;20072;-58
2022/01/11 09:35:10;;;;;;;4.32;2.60;;;;;;;2.02;61.14;95162.75;5008567;28;20386;-59
2022/01/11 09:37:37;;;;;;;6.00;3.35;;;;;;;1.88;61.08;95123.31;5008377;28;20026;-59
2022/01/11 09:40:05;;;;;;;5.15;3.08;;;;;;;2.11;61.00;95161.66;5008252;28;20022;-59
2022/01/11 09:42:31;;;;;;;7.53;3.92;;;;;;;2.15;60.79;95149.72;5008234;28;20038;-59
2022/01/11 09:44:58;;;;;;;7.63;4.25;;;;;;;2.30;59.55;95143.34;4997421;28;20547;-57
2022/01/11 09:47:24;;;;;;;7.32;4.38;;;;;;;2.39;58.90;95155.78;4988617;28;20027;-63
2022/01/11 09:49:49;;;;;;;5.70;3.28;;;;;;;2.37;58.51;95166.00;5020145;28;20476;-58
2022/01/11 09:52:15;;;;;;;12.07;3.28;;;;;;;2.37;58.13;95166.00;4987434;28;20062;-59
2022/01/11 09:54:45;;;;;;;4.65;3.10;;;;;;;2.36;58.48;95166.91;5007360;28;20080;-58
2022/01/11 09:57:11;;;;;;;7.57;3.22;;;;;;;2.27;58.42;95158.69;5007697;28;20046;-59
2022/01/11 09:59:37;;;;;;;5.15;2.90;;;;;;;2.18;58.80;95152.13;5001131;28;20097;-62
2022/01/11 10:02:03;;;;;;;6.53;3.58;;;;;;;2.26;59.75;95162.94;4988551;28;20029;-57
2022/01/11 10:04:32;;;;;;;8.50;4.50;;;;;;;2.18;59.85;95168.25;5020439;28;20432;-59
2022/01/11 10:07:08;;;;;;;9.02;5.20;;;;;;;2.09;59.59;95152.41;4986901;28;20022;-60
2022/01/11 10:09:50;;;;;;;6.40;3.38;;;;;;;2.38;59.54;95166.88;4988684;28;20120;-57
2022/01/11 10:12:18;;;;;;;5.10;3.17;;;;;;;2.40;58.39;95132.00;4988473;28;20037;-60
2022/01/11 10:14:50;;;;;;;7.50;3.63;;;;;;;2.53;58.70;95170.69;5002439;28;20041;-59
2022/01/11 10:17:27;;;;;;;8.10;5.15;;;;;;;2.39;59.70;95163.41;4988500;28;20161;-58
2022/01/11 10:20:05;;;;;;;9.32;3.72;;;;;;;2.46;59.01;95161.53;4987798;28;20062;-59
2022/01/11 10:22:31;;;;;;;8.85;4.90;;;;;;;2.50;58.62;95161.41;4988230;28;20481;-59
2022/01/11 10:24:58;;;;;;;6.90;3.17;;;;;;;2.33;58.61;95164.44;4988505;28;20077;-61
2022/01/11 10:27:26;;;;;;;5.05;2.72;;;;;;;2.08;59.55;95145.66;4988379;28;20457;-62
2022/01/11 10:29:54;;;;;;;5.38;2.58;;;;;;;2.21;59.60;95164.78;4996676;28;20029;-62
2022/01/11 10:32:28;;;;;;;4.65;2.97;;;;;;;2.15;59.26;95172.59;4989581;28;20724;-60
2022/01/11 10:34:56;;;;;;;13.13;3.83;;;;;;;2.16;59.10;95176.78;5010838;28;20038;-61
2022/01/11 10:37:43;;;;;;;5.38;2.83;;;;;;;2.13;59.01;95184.50;5012037;28;20088;-64
2022/01/11 10:40:16;;;;;;;5.70;3.40;;;;;;;2.18;59.57;95173.34;5011570;28;20026;-62
2022/01/11 10:42:53;;;;;;;7.35;4.05;;;;;;;2.01;60.41;95181.41;5011164;28;20165;-60
2022/01/11 10:45:28;;;;;;;4.53;2.78;;;;;;;2.02;59.48;95172.94;4997984;28;20038;-58
2022/01/11 10:48:05;;;;;;;6.70;3.53;;;;;;;1.80;59.91;95131.13;4992164;28;20042;-59
2022/01/11 10:50:44;;;;;;;3.78;2.45;;;;;;;2.04;58.98;95177.97;4991889;28;20026;-60
2022/01/11 10:53:19;;;;;;;4.93;2.40;;;;;;;1.83;61.09;95164.94;4991394;28;20041;-62
2022/01/11 10:55:56;;;;;;;4.88;2.80;;;;;;;2.02;57.88;95172.94;4991414;28;20049;-62
2022/01/11 10:58:24;;;;;;;6.65;3.35;;;;;;;1.86;58.44;95169.13;5002321;28;20050;-60
2022/01/11 11:00:54;;;;;;;5.20;2.97;;;;;;;1.89;58.42;95176.69;5007659;28;20044;-60
2022/01/11 11:03:21;;;;;;;5.00;3.10;;;;;;;1.84;58.36;95181.88;5007628;28;20413;-60
2022/01/11 11:05:52;;;;;;;5.88;3.25;;;;;;;1.89;59.10;95184.31;5007817;28;20362;-60
2022/01/11 11:08:44;;;;;;;9.13;4.57;;;;;;;1.97;58.84;95169.69;5007116;28;20041;-60
2022/01/11 11:11:11;;;;;;;;;;;;;;;2.15;57.22;95180.22;5007139;28;20034;-60
2022/01/11 11:13:45;;;;;;;5.00;2.95;;;;;;;2.01;56.23;95171.25;5009764;28;19921;-60
2022/01/11 11:16:16;;;;;;;5.78;3.60;;;;;;;1.96;56.23;95145.09;4991684;28;20023;-62
2022/01/11 11:18:52;;;;;;;5.43;3.00;;;;;;;2.40;54.85;95175.28;5001637;28;20109;-59
2022/01/11 11:21:22;;;;;;;5.55;3.13;;;;;;;2.22;55.61;95175.81;5010969;28;20527;-59
2022/01/11 11:23:54;;;;;;;4.68;3.05;;;;;;;2.28;54.83;95167.97;5009200;28;20460;-60
2022/01/11 11:26:21;;;;;;;4.95;3.53;;;;;;;2.22;54.75;95160.53;5011008;28;20018;-61
2022/01/11 11:28:46;;;;;;;6.18;3.53;;;;;;;2.10;55.11;95148.97;5009369;28;20077;-62
2022/01/11 11:31:13;;;;;;;6.03;3.72;;;;;;;2.26;55.16;95160.38;4990142;28;20132;-62
2022/01/11 11:33:40;;;;;;;6.70;3.50;;;;;;;2.30;54.06;95161.97;4991013;28;20094;-61
2022/01/11 11:36:09;;;;;;;5.50;3.10;;;;;;;2.27;53.72;95177.34;4991274;28;20037;-61
2022/01/11 11:38:39;;;;;;;4.95;3.17;;;;;;;2.32;53.80;95179.75;4991020;28;20028;-60
2022/01/11 11:41:06;;;;;;;4.30;2.92;;;;;;;2.19;53.75;95174.16;5006012;28;20033;-61
2022/01/11 11:43:33;;;;;;;7.78;4.53;;;;;;;2.02;54.50;95178.00;5010559;28;20037;-65